Time;durP1;ratioP1;P1;durP2;ratioP2;P2;SDS_P1;SDS_P2;PMS_P1;PMS_P2;Temp;Humidity;BMP_temperature;BMP_pressure;BME280_temperature;BME280_humidity;BME280_pressure;Samples;Min_cycle;Max_cycle;Signal;HPM_P1;HPM_P2
2022/04/12 00:01:53;;;;;;;0.85;0.85;;;;;;;12.47;42.23;100587.00;5237248;28;20404;-77
2022/04/12 00:04:23;;;;;;;0.85;0.85;;;;;;;12.56;42.28;100582.22;5264886;27;20063;-77
2022/04/12 00:06:54;;;;;;;0.70;0.70;;;;;;;12.55;42.65;100583.16;5255546;27;20043;-76
2022/04/12 00:09:24;;;;;;;0.30;0.30;;;;;;;12.51;42.81;100584.19;5233594;28;20040;-77
2022/04/12 00:11:58;;;;;;;0.73;0.70;;;;;;;12.49;42.82;100575.50;5242539;28;20059;-77
2022/04/12 00:14:29;;;;;;;1.95;0.50;;;;;;;12.46;42.33;100575.59;5242892;28;20055;-77
2022/04/12 00:19:48;;;;;;;0.80;0.80;;;;;;;12.42;42.63;100571.38;5258895;28;20042;-76
2022/04/12 00:22:19;;;;;;;0.82;0.82;;;;;;;12.36;42.66;100568.94;5250461;28;20535;-77
2022/04/12 00:24:49;;;;;;;0.77;0.77;;;;;;;12.31;42.83;100569.16;5275224;27;20428;-77
2022/04/12 00:27:20;;;;;;;0.55;0.55;;;;;;;12.27;42.93;100570.16;5249269;28;20129;-77
2022/04/12 00:29:50;;;;;;;1.23;1.13;;;;;;;12.41;42.71;100569.66;5255851;27;20035;-77
2022/04/12 00:32:21;;;;;;;1.95;1.02;;;;;;;12.39;42.79;100571.47;5229791;28;20122;-77
2022/04/12 00:34:51;;;;;;;0.47;0.47;;;;;;;12.32;42.88;100575.25;5241087;27;20093;-77
2022/04/12 00:37:22;;;;;;;1.38;0.98;;;;;;;12.38;43.32;100569.75;5260797;28;20068;-77
2022/04/12 00:39:53;;;;;;;1.65;1.20;;;;;;;12.34;42.87;100565.53;5252235;28;20040;-77
2022/04/12 00:42:24;;;;;;;0.50;0.50;;;;;;;12.32;43.04;100568.22;5252091;28;20040;-77
2022/04/12 00:44:54;;;;;;;2.80;1.08;;;;;;;12.36;43.33;100568.94;5250079;28;20047;-76
2022/04/12 00:47:25;;;;;;;0.70;0.70;;;;;;;12.31;43.11;100570.91;5274404;27;20082;-77
2022/04/12 00:49:56;;;;;;;0.50;0.50;;;;;;;12.35;43.18;100568.09;5256149;28;20466;-77
2022/04/12 00:52:28;;;;;;;0.50;0.50;;;;;;;12.04;43.79;100569.22;5259085;27;20141;-77
2022/04/12 00:54:58;;;;;;;4.13;0.68;;;;;;;12.07;43.83;100558.56;5253996;28;20154;-77
2022/04/12 00:57:33;;;;;;;1.35;0.95;;;;;;;12.19;43.40;100559.91;5263525;27;20573;-77
2022/04/12 01:00:06;;;;;;;0.40;0.40;;;;;;;12.18;43.27;100560.84;5268772;27;20436;-77
2022/04/12 01:02:36;;;;;;;;;;;;;;;12.29;43.25;100552.56;5245570;27;20116;-76
2022/04/12 01:05:07;;;;;;;0.40;0.40;;;;;;;12.11;43.08;100551.44;5245115;28;19919;-77
2022/04/12 01:07:38;;;;;;;0.88;0.88;;;;;;;12.22;43.55;100549.28;5253836;27;20046;-77
2022/04/12 01:10:09;;;;;;;0.57;0.57;;;;;;;12.37;43.41;100554.88;5253911;28;20028;-77
2022/04/12 01:12:41;;;;;;;0.40;0.40;;;;;;;12.24;43.56;100542.19;5250750;27;20387;-77
2022/04/12 01:15:16;;;;;;;0.60;0.60;;;;;;;12.19;43.54;100541.50;5232372;28;20031;-77
2022/04/12 01:17:48;;;;;;;1.15;1.05;;;;;;;12.30;43.59;100542.88;5244128;27;20043;-77
2022/04/12 01:20:24;;;;;;;0.63;0.63;;;;;;;12.30;43.75;100537.63;5270116;27;20050;-77
2022/04/12 01:23:21;;;;;;;0.50;0.50;;;;;;;12.17;43.89;100526.69;5243086;28;20051;-77
2022/04/12 01:25:55;;;;;;;1.60;1.50;;;;;;;12.20;43.58;100529.22;5250308;27;21045;-76
2022/04/12 01:28:25;;;;;;;0.50;0.50;;;;;;;12.22;43.66;100540.53;5253997;28;20042;-77
2022/04/12 01:30:56;;;;;;;0.90;0.85;;;;;;;12.16;43.63;100525.84;5239163;28;20051;-77
2022/04/12 01:33:27;;;;;;;0.45;0.45;;;;;;;12.18;44.10;100508.25;5255583;28;20105;-77
2022/04/12 01:35:58;;;;;;;0.57;0.57;;;;;;;12.19;43.74;100512.56;5251339;28;20090;-77
2022/04/12 01:38:28;;;;;;;0.40;0.40;;;;;;;12.22;43.91;100499.31;5256073;28;20095;-77
2022/04/12 01:40:59;;;;;;;0.50;0.50;;;;;;;12.18;44.10;100497.72;5239614;28;20052;-77
2022/04/12 01:43:30;;;;;;;2.17;1.75;;;;;;;12.26;43.61;100500.03;5254328;28;20480;-77
2022/04/12 01:46:00;;;;;;;0.50;0.50;;;;;;;12.27;44.08;100499.13;5263017;28;20059;-76
2022/04/12 01:48:31;;;;;;;0.55;0.55;;;;;;;11.93;44.38;100501.22;5271092;27;20077;-77
2022/04/12 01:51:01;;;;;;;1.13;1.08;;;;;;;12.10;44.12;100510.28;5250467;28;20067;-77
2022/04/12 01:53:32;;;;;;;0.80;0.80;;;;;;;12.18;44.35;100505.59;5233000;27;20093;-77
2022/04/12 01:56:03;;;;;;;0.85;0.85;;;;;;;12.09;44.13;100511.22;5251303;28;20040;-77
2022/04/12 01:58:34;;;;;;;0.90;0.90;;;;;;;12.18;44.38;100512.63;5238502;27;20044;-77
2022/04/12 02:01:05;;;;;;;0.30;0.30;;;;;;;12.18;44.19;100513.50;5275946;27;20036;-77
2022/04/12 02:03:35;;;;;;;0.35;0.35;;;;;;;11.92;44.63;100512.66;5259429;28;20092;-77
2022/04/12 02:06:06;;;;;;;0.50;0.50;;;;;;;12.02;44.33;100513.19;5254022;28;20126;-77
2022/04/12 02:08:38;;;;;;;1.30;1.20;;;;;;;11.92;44.86;100512.66;5271928;27;20454;-77
2022/04/12 02:11:09;;;;;;;0.50;0.50;;;;;;;11.86;44.56;100507.59;5266241;28;20538;-77
2022/04/12 02:13:40;;;;;;;1.35;1.25;;;;;;;12.00;44.86;100509.75;5272205;27;20118;-77
2022/04/12 02:16:10;;;;;;;0.28;0.28;;;;;;;12.10;44.33;100499.78;5220116;28;20058;-77
2022/04/12 02:18:41;;;;;;;0.73;0.70;;;;;;;11.99;44.70;100499.31;5239151;28;20046;-77
2022/04/12 02:21:11;;;;;;;0.40;0.40;;;;;;;11.78;45.37;100501.75;5214418;28;20111;-77
2022/04/12 02:23:41;;;;;;;0.30;0.30;;;;;;;12.05;44.73;100504.31;5268226;28;20035;-77
2022/04/12 02:26:12;;;;;;;0.43;0.43;;;;;;;12.21;44.15;100508.09;5272399;28;20101;-77
2022/04/12 02:28:42;;;;;;;0.68;0.68;;;;;;;12.13;44.89;100510.16;5225223;28;20050;-77
2022/04/12 02:31:13;;;;;;;0.63;0.63;;;;;;;12.05;44.84;100517.47;5273493;28;20031;-77
2022/04/12 02:33:43;;;;;;;0.50;0.50;;;;;;;12.05;44.72;100506.97;5272478;28;20403;-77
2022/04/12 02:36:14;;;;;;;0.65;0.65;;;;;;;12.00;44.66;100498.38;5260395;28;20081;-77
2022/04/12 02:38:44;;;;;;;0.50;0.50;;;;;;;12.03;44.78;100508.78;5236389;28;20058;-77
2022/04/12 02:41:15;;;;;;;0.63;0.63;;;;;;;12.03;44.90;100508.78;5233387;28;20543;-77
2022/04/12 02:43:45;;;;;;;0.73;0.73;;;;;;;12.02;45.08;100507.94;5257180;28;20225;-77
2022/04/12 02:46:16;;;;;;;0.50;0.50;;;;;;;11.95;45.03;100504.63;5255423;28;20044;-77
2022/04/12 02:48:46;;;;;;;1.45;1.35;;;;;;;12.04;44.62;100503.47;5235932;28;20127;-77
2022/04/12 02:51:17;;;;;;;0.68;0.68;;;;;;;11.84;45.34;100498.91;5233813;28;20036;-77
2022/04/12 02:53:47;;;;;;;0.30;0.30;;;;;;;11.95;44.71;100488.84;5239691;28;20023;-77
2022/04/12 02:56:18;;;;;;;0.40;0.40;;;;;;;11.93;45.10;100493.34;5234280;28;20032;-77
2022/04/12 02:58:48;;;;;;;0.52;0.52;;;;;;;12.01;44.60;100485.19;5241502;28;20488;-77
2022/04/12 03:01:19;;;;;;;1.48;0.70;;;;;;;11.93;44.75;100487.19;5219749;28;20032;-77
2022/04/12 03:03:49;;;;;;;1.25;1.15;;;;;;;11.87;45.17;100487.44;5245394;28;20023;-77
2022/04/12 03:06:20;;;;;;;0.65;0.63;;;;;;;12.01;44.86;100503.59;5228199;28;20139;-77
2022/04/12 03:08:50;;;;;;;0.77;0.77;;;;;;;11.80;45.28;100498.16;5239453;28;20093;-77
2022/04/12 03:11:21;;;;;;;0.40;0.40;;;;;;;11.80;45.43;100494.66;5239411;28;20060;-77
2022/04/12 03:13:52;;;;;;;0.65;0.55;;;;;;;11.76;45.34;100491.28;5240530;27;20365;-78
2022/04/12 03:16:22;;;;;;;0.50;0.50;;;;;;;11.85;45.52;100491.88;5256083;28;20039;-77
2022/04/12 03:18:53;;;;;;;0.52;0.52;;;;;;;11.87;45.93;100488.28;5290424;27;20028;-77
2022/04/12 03:21:23;;;;;;;0.70;0.70;;;;;;;11.91;45.38;100478.50;5256237;28;20276;-77
2022/04/12 03:23:54;;;;;;;0.50;0.50;;;;;;;11.77;45.79;100485.13;5251248;27;20124;-77
2022/04/12 03:26:24;;;;;;;0.60;0.60;;;;;;;11.86;45.63;100488.34;5251094;28;20452;-77
2022/04/12 03:28:55;;;;;;;0.45;0.45;;;;;;;11.54;46.76;100488.56;5258219;28;20028;-77
2022/04/12 03:31:26;;;;;;;0.70;0.70;;;;;;;11.82;45.67;100484.97;5254023;28;20092;-77
2022/04/12 03:33:56;;;;;;;0.50;0.50;;;;;;;11.78;45.95;100489.47;5240479;27;20020;-79
2022/04/12 03:36:27;;;;;;;0.40;0.40;;;;;;;11.72;46.37;100473.94;5286467;27;20032;-77
2022/04/12 03:38:57;;;;;;;0.70;0.70;;;;;;;11.70;46.30;100472.25;5275588;27;20024;-77
2022/04/12 03:41:27;;;;;;;0.68;0.68;;;;;;;11.82;45.73;100466.56;5246596;28;20031;-77
2022/04/12 03:43:58;;;;;;;0.70;0.70;;;;;;;11.79;46.32;100458.78;5279982;27;20035;-77
2022/04/12 03:46:28;;;;;;;11.18;0.88;;;;;;;11.77;46.03;100455.38;5241911;27;20320;-78
2022/04/12 03:48:59;;;;;;;0.30;0.30;;;;;;;11.79;46.18;100461.41;5273348;27;20092;-77
2022/04/12 03:51:30;;;;;;;0.50;0.50;;;;;;;11.79;45.90;100458.78;5274949;27;20032;-77
2022/04/12 03:54:01;;;;;;;2.47;1.48;;;;;;;11.84;46.28;100466.50;5275702;27;20593;-77
2022/04/12 03:56:32;;;;;;;2.28;0.82;;;;;;;11.79;46.08;100466.66;5250024;27;20039;-77
2022/04/12 03:59:03;;;;;;;0.75;0.70;;;;;;;11.74;46.23;100471.25;5240040;28;20040;-77
2022/04/12 04:01:33;;;;;;;0.65;0.65;;;;;;;11.62;46.51;100475.16;5256306;28;20035;-77
2022/04/12 04:04:04;;;;;;;0.40;0.40;;;;;;;11.68;45.98;100469.69;5275131;27;20024;-77
2022/04/12 04:06:34;;;;;;;0.40;0.40;;;;;;;11.73;46.67;100464.25;5259884;27;20107;-77
2022/04/12 04:09:05;;;;;;;0.52;0.52;;;;;;;11.78;46.16;100471.06;5269429;27;20028;-77
2022/04/12 04:11:38;;;;;;;1.20;0.88;;;;;;;11.65;46.46;100468.03;5239437;28;20025;-77
2022/04/12 04:14:10;;;;;;;0.77;0.77;;;;;;;11.43;47.15;100467.06;5244680;28;20032;-77
2022/04/12 04:16:41;;;;;;;0.93;0.88;;;;;;;11.68;46.58;100458.31;5218722;27;20046;-76
2022/04/12 04:19:12;;;;;;;7.80;1.42;;;;;;;11.60;46.31;100467.34;5250322;28;20044;-76
2022/04/12 04:21:42;;;;;;;0.80;0.80;;;;;;;11.66;46.56;100471.50;5247898;28;20046;-76
2022/04/12 04:24:13;;;;;;;0.30;0.30;;;;;;;11.64;46.51;100478.59;5275481;27;20097;-76
2022/04/12 04:26:44;;;;;;;4.53;0.85;;;;;;;11.54;46.78;100474.56;5234692;27;20422;-75
2022/04/12 04:29:18;;;;;;;1.70;1.17;;;;;;;11.55;46.56;100482.41;5276697;27;20043;-76
2022/04/12 04:31:50;;;;;;;0.57;0.57;;;;;;;11.58;46.15;100484.94;5251705;28;20039;-76
2022/04/12 04:34:26;;;;;;;0.52;0.52;;;;;;;11.59;46.66;100472.63;5254654;28;20533;-75
2022/04/12 04:36:56;;;;;;;;;;;;;;;11.45;46.58;100478.38;5255700;28;20043;-75
2022/04/12 04:39:27;;;;;;;0.60;0.60;;;;;;;11.55;46.60;100466.63;5269513;27;19923;-76
2022/04/12 04:41:57;;;;;;;1.08;0.98;;;;;;;11.39;47.13;100466.31;5253334;28;20173;-76
2022/04/12 04:44:28;;;;;;;2.38;1.58;;;;;;;11.34;46.89;100469.09;5236681;27;20089;-76
2022/04/12 04:46:58;;;;;;;1.23;1.13;;;;;;;11.33;46.69;100472.63;5253113;28;20161;-75
2022/04/12 04:49:29;;;;;;;0.60;0.60;;;;;;;11.44;46.94;100468.78;5223960;28;20036;-76
2022/04/12 04:51:59;;;;;;;0.50;0.50;;;;;;;11.42;47.00;100467.97;5239707;28;20040;-76
2022/04/12 04:54:30;;;;;;;0.60;0.60;;;;;;;11.45;46.94;100470.47;5246330;27;20035;-76
2022/04/12 04:57:03;;;;;;;1.83;1.73;;;;;;;11.46;46.71;100473.09;5272747;27;20035;-76
2022/04/12 04:59:33;;;;;;;2.42;2.22;;;;;;;11.33;47.46;100477.91;5274761;27;20040;-76
2022/04/12 05:02:04;;;;;;;0.50;0.50;;;;;;;11.21;47.74;100474.81;5251032;28;20496;-75
2022/04/12 05:04:34;;;;;;;0.43;0.43;;;;;;;11.34;47.35;100474.38;5272632;27;20118;-75
2022/04/12 05:07:05;;;;;;;0.70;0.70;;;;;;;11.11;48.14;100469.88;5252701;28;20051;-75
2022/04/12 05:09:35;;;;;;;0.77;0.77;;;;;;;11.42;47.08;100473.25;5256745;28;20128;-75
2022/04/12 05:12:06;;;;;;;0.30;0.30;;;;;;;11.27;47.62;100467.59;5248884;28;20416;-75
2022/04/12 05:14:37;;;;;;;0.60;0.50;;;;;;;10.99;48.85;100470.31;5235294;28;20032;-75
2022/04/12 05:17:08;;;;;;;0.50;0.50;;;;;;;11.24;47.88;100472.94;5268900;27;20043;-76
2022/04/12 05:19:41;;;;;;;0.32;0.32;;;;;;;10.98;48.87;100476.47;5251832;27;20040;-76
2022/04/12 05:22:11;;;;;;;1.75;0.95;;;;;;;11.26;47.97;100470.25;5257534;28;20203;-76
2022/04/12 05:24:42;;;;;;;0.95;0.95;;;;;;;11.24;47.63;100462.44;5246722;27;20032;-75
2022/04/12 05:27:12;;;;;;;0.22;0.22;;;;;;;11.25;47.73;100473.78;5254896;28;20078;-75
2022/04/12 05:29:43;;;;;;;1.08;0.90;;;;;;;11.23;47.96;100479.09;5247668;27;20583;-75
2022/04/12 05:32:15;;;;;;;2.40;0.55;;;;;;;11.27;47.79;100488.63;5238762;28;20051;-76
2022/04/12 05:34:46;;;;;;;0.47;0.47;;;;;;;11.15;48.48;100482.00;5247398;27;20031;-75
2022/04/12 05:37:17;;;;;;;0.60;0.60;;;;;;;11.22;48.52;100474.75;5255695;28;20529;-76
2022/04/12 05:39:47;;;;;;;0.38;0.38;;;;;;;11.25;47.93;100487.81;5270576;27;20140;-76
2022/04/12 05:42:18;;;;;;;0.45;0.45;;;;;;;11.28;48.12;100494.72;5245633;28;20043;-75
2022/04/12 05:44:48;;;;;;;1.25;1.15;;;;;;;11.16;48.92;100501.25;5241188;27;20046;-76
2022/04/12 05:47:19;;;;;;;0.95;0.93;;;;;;;11.30;48.00;100499.00;5248150;28;20048;-76
2022/04/12 05:49:49;;;;;;;2.63;1.02;;;;;;;11.43;47.96;100509.09;5256246;27;20035;-76
2022/04/12 05:52:20;;;;;;;0.30;0.30;;;;;;;11.30;48.32;100499.00;5269277;28;20112;-75
2022/04/12 05:54:50;;;;;;;3.45;1.35;;;;;;;11.18;48.54;100502.06;5240853;28;20176;-75
2022/04/12 05:57:22;;;;;;;1.55;1.45;;;;;;;11.37;48.17;100506.66;5259057;28;20075;-75
2022/04/12 05:59:52;;;;;;;0.50;0.50;;;;;;;11.31;48.77;100502.50;5254447;28;20028;-76
2022/04/12 06:02:23;;;;;;;0.80;0.80;;;;;;;11.38;48.02;100505.75;5231408;28;20032;-75
2022/04/12 06:04:53;;;;;;;1.17;1.13;;;;;;;11.38;48.31;100518.91;5233604;28;20039;-76
2022/04/12 06:07:30;;;;;;;0.57;0.57;;;;;;;11.29;49.24;100510.41;5254410;28;20389;-76
2022/04/12 06:10:01;;;;;;;0.88;0.88;;;;;;;11.12;49.07;100510.97;5237866;28;20039;-76
2022/04/12 06:12:31;;;;;;;0.30;0.30;;;;;;;11.42;48.88;100507.38;5249273;28;20366;-74
2022/04/12 06:15:03;;;;;;;1.65;1.15;;;;;;;11.25;49.36;100506.19;5241759;28;20060;-76
2022/04/12 06:17:34;;;;;;;0.65;0.65;;;;;;;11.30;49.37;100498.16;5233000;28;20036;-75
2022/04/12 06:20:09;;;;;;;0.82;0.82;;;;;;;11.39;48.80;100502.22;5232473;28;20036;-75
2022/04/12 06:22:41;;;;;;;3.05;1.45;;;;;;;11.20;49.29;100500.22;5247325;28;20097;-75
2022/04/12 06:25:19;;;;;;;0.32;0.32;;;;;;;11.35;49.18;100504.09;5237541;28;20131;-74
2022/04/12 06:27:51;;;;;;;0.40;0.40;;;;;;;11.36;49.16;100507.59;5239858;28;20530;-75
2022/04/12 06:30:23;;;;;;;0.57;0.57;;;;;;;11.40;49.75;100498.69;5239529;28;20042;-76
2022/04/12 06:32:54;;;;;;;0.43;0.43;;;;;;;11.47;49.16;100500.19;5243503;28;20040;-75
2022/04/12 06:35:27;;;;;;;0.38;0.38;;;;;;;11.39;49.44;100499.59;5251542;28;20084;-75
2022/04/12 06:37:58;;;;;;;0.40;0.40;;;;;;;11.40;49.70;100493.44;5244235;28;20456;-75
2022/04/12 06:40:28;;;;;;;0.30;0.30;;;;;;;11.38;49.83;100495.25;5254974;28;20421;-76
2022/04/12 06:42:59;;;;;;;0.50;0.50;;;;;;;11.52;49.05;100497.41;5239876;28;20479;-76
2022/04/12 06:45:29;;;;;;;1.38;0.73;;;;;;;11.56;49.72;100499.88;5243334;27;20082;-76
2022/04/12 06:48:00;;;;;;;0.68;0.68;;;;;;;11.62;49.16;100502.28;5272254;27;20047;-74
2022/04/12 06:50:32;;;;;;;1.00;1.00;;;;;;;11.54;49.74;100501.69;5251757;28;20093;-75
2022/04/12 06:53:05;;;;;;;0.47;0.47;;;;;;;11.64;49.38;100497.84;5267603;28;20404;-75
2022/04/12 06:55:36;;;;;;;1.67;1.58;;;;;;;11.60;49.85;100498.88;5253373;27;20044;-75
2022/04/12 06:58:06;;;;;;;4.72;0.90;;;;;;;11.71;49.20;100492.38;5264225;27;20627;-75
2022/04/12 07:00:39;;;;;;;0.77;0.77;;;;;;;11.57;50.15;100493.72;5220821;28;20040;-75
2022/04/12 07:03:10;;;;;;;1.23;1.23;;;;;;;11.63;49.47;100495.28;5259712;28;20040;-75
2022/04/12 07:05:40;;;;;;;0.88;0.88;;;;;;;11.65;49.84;100493.47;5243536;27;20067;-74
2022/04/12 07:08:12;;;;;;;0.57;0.57;;;;;;;11.77;49.10;100489.53;5251217;28;20032;-74
2022/04/12 07:10:45;;;;;;;2.10;1.48;;;;;;;11.78;49.40;100493.84;5237811;28;20114;-75
2022/04/12 07:13:16;;;;;;;0.90;0.88;;;;;;;11.96;49.14;100487.94;5252979;28;20036;-76
2022/04/12 07:15:46;;;;;;;1.85;1.35;;;;;;;11.91;49.42;100478.50;5240408;27;20633;-76
2022/04/12 07:18:18;;;;;;;0.47;0.47;;;;;;;11.72;50.37;100475.69;5246805;28;20042;-76
2022/04/12 07:20:49;;;;;;;0.65;0.65;;;;;;;11.86;49.48;100485.72;5270781;27;20036;-76
2022/04/12 07:23:19;;;;;;;0.40;0.40;;;;;;;11.90;49.58;100482.91;5243351;28;20038;-76
2022/04/12 07:25:50;;;;;;;0.45;0.45;;;;;;;11.90;49.98;100485.53;5244952;27;20035;-75
2022/04/12 07:28:20;;;;;;;0.77;0.77;;;;;;;12.04;49.33;100489.47;5246973;28;20161;-76
2022/04/12 07:30:50;;;;;;;1.13;1.02;;;;;;;12.04;49.81;100486.81;5244782;28;20121;-77
2022/04/12 07:33:21;;;;;;;26.50;1.85;;;;;;;12.01;50.26;100492.22;5226623;28;20028;-75
2022/04/12 07:35:52;;;;;;;1.25;1.15;;;;;;;12.22;49.50;100494.03;5255221;28;20032;-76
2022/04/12 07:38:22;;;;;;;2.83;1.40;;;;;;;12.23;49.96;100481.75;5258029;28;20395;-75
2022/04/12 07:40:53;;;;;;;0.52;0.52;;;;;;;12.23;50.16;100485.25;5241054;28;20036;-77
2022/04/12 07:43:24;;;;;;;1.63;1.17;;;;;;;12.29;49.63;100489.41;5245259;28;20036;-75
2022/04/12 07:45:54;;;;;;;1.27;1.20;;;;;;;12.26;49.93;100485.13;5244114;27;20039;-75
2022/04/12 07:48:25;;;;;;;1.48;1.38;;;;;;;12.27;50.34;100492.09;5282045;27;20076;-76
2022/04/12 07:50:55;;;;;;;0.80;0.80;;;;;;;12.27;50.42;100489.44;5240991;28;20035;-76
2022/04/12 07:53:26;;;;;;;0.70;0.70;;;;;;;12.39;49.95;100485.53;5237780;27;20032;-75
2022/04/12 07:55:56;;;;;;;1.00;1.00;;;;;;;12.50;50.29;100477.22;5198597;28;20044;-76
2022/04/12 07:58:27;;;;;;;0.93;0.93;;;;;;;12.51;49.63;100473.66;5235178;27;20092;-75
2022/04/12 08:00:57;;;;;;;1.33;1.23;;;;;;;12.52;50.36;100475.34;5257294;28;20040;-77
2022/04/12 08:03:28;;;;;;;1.65;1.02;;;;;;;12.60;50.58;100478.53;5237637;27;20483;-77
2022/04/12 08:05:58;;;;;;;1.02;0.98;;;;;;;12.64;49.98;100473.16;5237215;28;20047;-75
2022/04/12 08:08:29;;;;;;;1.25;1.15;;;;;;;12.63;50.83;100472.31;5247470;28;20081;-75
2022/04/12 08:11:00;;;;;;;0.70;0.70;;;;;;;12.73;50.32;100472.81;5251944;28;20585;-75
2022/04/12 08:13:31;;;;;;;0.70;0.70;;;;;;;12.76;50.51;100470.06;5224343;28;20036;-75
2022/04/12 08:16:02;;;;;;;0.68;0.68;;;;;;;12.81;50.32;100473.34;5242688;28;20040;-77
2022/04/12 08:18:33;;;;;;;0.55;0.55;;;;;;;12.84;50.36;100465.34;5242346;28;20043;-75
2022/04/12 08:21:03;;;;;;;1.17;1.17;;;;;;;12.98;50.01;100463.91;5240629;28;20035;-76
2022/04/12 08:23:33;;;;;;;0.73;0.73;;;;;;;13.01;50.44;100471.69;5275636;27;20039;-77
2022/04/12 08:26:04;;;;;;;0.57;0.57;;;;;;;13.05;50.34;100462.72;5274123;27;20079;-76
2022/04/12 08:28:35;;;;;;;3.03;1.55;;;;;;;13.02;50.74;100474.25;5260347;27;20036;-76
2022/04/12 08:31:05;;;;;;;0.77;0.77;;;;;;;13.20;50.08;100477.88;5256935;28;20043;-76
2022/04/12 08:33:35;;;;;;;0.88;0.88;;;;;;;13.19;50.67;100470.91;5255743;27;20034;-76
2022/04/12 08:36:06;;;;;;;4.03;0.70;;;;;;;13.22;50.60;100470.78;5239589;28;20109;-73
2022/04/12 08:38:36;;;;;;;0.85;0.85;;;;;;;13.35;50.75;100470.25;5257759;28;20071;-75
2022/04/12 08:41:08;;;;;;;0.95;0.95;;;;;;;13.33;50.79;100464.22;5252862;28;20043;-75
2022/04/12 08:43:40;;;;;;;1.33;1.25;;;;;;;13.37;51.05;100461.38;5245134;27;20059;-75
2022/04/12 08:46:11;;;;;;;0.57;0.57;;;;;;;13.45;51.03;100460.22;5237531;28;20040;-75
2022/04/12 08:48:42;;;;;;;2.78;1.50;;;;;;;13.58;50.37;100452.63;5223641;27;20065;-76
2022/04/12 08:51:12;;;;;;;0.47;0.47;;;;;;;13.66;50.88;100456.63;5243725;28;20083;-75
2022/04/12 08:53:45;;;;;;;2.58;1.23;;;;;;;13.61;51.06;100455.13;5244977;27;20034;-75
2022/04/12 08:56:15;;;;;;;1.15;1.15;;;;;;;13.71;50.50;100445.88;5240369;28;20047;-76
2022/04/12 08:58:46;;;;;;;0.57;0.57;;;;;;;13.84;50.52;100449.69;5258887;28;20488;-76
2022/04/12 09:01:16;;;;;;;0.30;0.30;;;;;;;13.83;50.83;100452.38;5237589;28;20349;-76
2022/04/12 09:03:47;;;;;;;1.17;1.08;;;;;;;14.03;50.23;100445.38;5254318;28;20023;-77
2022/04/12 09:06:18;;;;;;;0.55;0.55;;;;;;;14.00;49.62;100447.22;5244606;28;20447;-77
2022/04/12 09:08:51;;;;;;;0.63;0.63;;;;;;;14.02;50.10;100444.50;5256658;28;20054;-75
2022/04/12 09:11:22;;;;;;;0.60;0.60;;;;;;;14.07;49.90;100436.38;5269937;28;20594;-75
2022/04/12 09:14:00;;;;;;;1.05;1.05;;;;;;;14.14;50.06;100435.16;5245762;28;20058;-77
2022/04/12 09:16:31;;;;;;;0.30;0.30;;;;;;;14.15;50.02;100426.31;5264236;27;20792;-76
2022/04/12 09:19:01;;;;;;;1.15;1.15;;;;;;;14.15;50.48;100435.09;5233081;28;20040;-75
2022/04/12 09:21:32;;;;;;;0.60;0.60;;;;;;;14.24;50.60;100430.31;5243162;28;20424;-74
2022/04/12 09:24:03;;;;;;;1.10;1.10;;;;;;;14.42;50.01;100431.22;5261472;28;20152;-75
2022/04/12 09:26:35;;;;;;;0.77;0.75;;;;;;;14.41;49.89;100425.09;5276927;27;20043;-77
2022/04/12 09:29:10;;;;;;;0.40;0.40;;;;;;;14.48;49.96;100421.25;5259782;28;20088;-75
2022/04/12 09:31:42;;;;;;;0.60;0.60;;;;;;;14.53;50.27;100423.66;5269531;27;20530;-77
2022/04/12 09:34:13;;;;;;;4.45;1.50;;;;;;;14.80;48.77;100425.88;5251254;28;20028;-74
2022/04/12 09:36:44;;;;;;;0.93;0.93;;;;;;;14.79;49.17;100416.28;5257778;27;20087;-76
2022/04/12 09:39:19;;;;;;;0.52;0.52;;;;;;;14.78;49.42;100419.84;5233949;28;20040;-75
2022/04/12 09:41:49;;;;;;;0.47;0.47;;;;;;;14.94;49.05;100417.28;5256153;27;20027;-76
2022/04/12 09:44:21;;;;;;;0.82;0.82;;;;;;;14.92;48.88;100424.41;5242163;28;20058;-76
2022/04/12 09:46:54;;;;;;;1.30;1.27;;;;;;;14.92;48.46;100413.84;5250884;28;20062;-76
2022/04/12 09:49:25;;;;;;;0.70;0.70;;;;;;;14.99;48.79;100414.41;5254122;28;20063;-76
2022/04/12 09:51:55;;;;;;;0.25;0.25;;;;;;;15.10;48.72;100414.72;5241696;28;20035;-75
2022/04/12 09:54:33;;;;;;;0.30;0.30;;;;;;;15.13;48.37;100411.91;5259137;27;20032;-77
2022/04/12 09:57:05;;;;;;;0.70;0.70;;;;;;;15.27;47.68;100400.63;5251516;28;20492;-77
2022/04/12 09:59:37;;;;;;;3.25;1.77;;;;;;;15.34;47.91;100394.09;5237202;28;20381;-75
2022/04/12 10:02:09;;;;;;;0.57;0.57;;;;;;;15.37;48.15;100403.69;5242421;28;20055;-76
2022/04/12 10:04:40;;;;;;;0.43;0.43;;;;;;;15.47;47.59;100404.03;5244351;28;20032;-75
2022/04/12 10:07:13;;;;;;;0.35;0.35;;;;;;;15.53;47.66;100398.41;5239116;28;20040;-76
2022/04/12 10:09:47;;;;;;;0.75;0.75;;;;;;;15.62;46.36;100403.22;5251866;28;20157;-77
2022/04/12 10:12:18;;;;;;;1.02;0.65;;;;;;;15.54;47.59;100395.69;5248359;28;20139;-76
2022/04/12 10:14:49;;;;;;;0.40;0.40;;;;;;;15.89;47.19;100394.78;5256761;28;20067;-77
2022/04/12 10:17:20;;;;;;;0.82;0.82;;;;;;;15.77;48.45;100403.31;5249234;28;20796;-77
2022/04/12 10:19:51;;;;;;;0.65;0.65;;;;;;;15.93;46.33;100379.59;5235554;28;20411;-76
2022/04/12 10:22:23;;;;;;;0.60;0.60;;;;;;;16.05;45.92;100389.47;5274316;27;20126;-77
2022/04/12 10:24:54;;;;;;;1.17;0.98;;;;;;;15.99;45.96;100389.81;5251394;27;20470;-76
2022/04/12 10:27:25;;;;;;;0.88;0.82;;;;;;;16.05;46.20;100387.69;5234403;27;20353;-76
2022/04/12 10:30:15;;;;;;;0.50;0.50;;;;;;;16.14;45.15;100393.41;5236422;28;20508;-76
2022/04/12 10:33:07;;;;;;;0.57;0.57;;;;;;;16.25;44.73;100383.06;5237094;28;20043;-75
2022/04/12 10:35:44;;;;;;;0.98;0.98;;;;;;;16.31;44.52;100385.38;5236110;28;20046;-76
2022/04/12 10:38:16;;;;;;;8.75;2.15;;;;;;;16.35;44.26;100380.78;5267497;28;20050;-76
2022/04/12 10:40:49;;;;;;;0.35;0.35;;;;;;;16.46;44.64;100388.09;5250258;28;20059;-75
2022/04/12 10:43:24;;;;;;;;;;;;;;;16.54;43.80;100375.28;5251641;28;20039;-77
2022/04/12 10:45:56;;;;;;;0.45;0.45;;;;;;;16.49;45.99;100379.97;5237673;28;20009;-77
2022/04/12 10:48:29;;;;;;;0.40;0.40;;;;;;;16.63;44.29;100379.16;5222501;28;20039;-75
2022/04/12 10:51:01;;;;;;;0.50;0.50;;;;;;;16.76;44.27;100374.00;5224179;28;20290;-76
2022/04/12 10:53:38;;;;;;;0.70;0.70;;;;;;;16.82;45.07;100369.22;5242917;28;20019;-76
2022/04/12 10:56:14;;;;;;;0.85;0.73;;;;;;;16.81;45.46;100366.66;5242064;28;20046;-75
2022/04/12 10:58:45;;;;;;;0.75;0.75;;;;;;;16.91;44.78;100364.31;5242009;28;20023;-76
2022/04/12 11:01:30;;;;;;;0.55;0.55;;;;;;;16.97;44.50;100367.50;5256301;28;20035;-75
2022/04/12 11:04:04;;;;;;;0.55;0.55;;;;;;;17.00;45.51;100355.84;5257087;28;20097;-76
2022/04/12 11:06:35;;;;;;;1.55;1.30;;;;;;;17.10;45.41;100354.38;5242390;28;20039;-76
2022/04/12 11:09:17;;;;;;;0.38;0.38;;;;;;;17.23;44.93;100350.94;5260025;28;20039;-75
2022/04/12 11:11:52;;;;;;;2.25;1.50;;;;;;;17.39;43.58;100350.88;5269256;28;20060;-76
2022/04/12 11:14:36;;;;;;;0.40;0.40;;;;;;;17.51;42.79;100344.78;5233002;28;20036;-75
2022/04/12 11:17:12;;;;;;;0.65;0.65;;;;;;;17.50;43.55;100337.78;5235825;28;20032;-75
2022/04/12 11:19:49;;;;;;;3.83;1.75;;;;;;;17.54;44.18;100336.66;5244520;28;20036;-76
2022/04/12 11:22:21;;;;;;;0.47;0.47;;;;;;;17.72;43.57;100339.09;5249802;28;20036;-76
2022/04/12 11:25:14;;;;;;;0.60;0.60;;;;;;;17.84;42.98;100340.13;5232364;28;20425;-76
2022/04/12 11:27:46;;;;;;;0.50;0.50;;;;;;;17.93;43.30;100339.53;5262716;28;20047;-76
2022/04/12 11:30:17;;;;;;;0.38;0.38;;;;;;;17.86;42.87;100338.22;5226711;28;20186;-76
2022/04/12 11:32:48;;;;;;;0.73;0.73;;;;;;;18.03;43.12;100340.66;5260003;28;20126;-75
2022/04/12 11:35:19;;;;;;;6.32;0.60;;;;;;;18.06;42.89;100336.97;5241319;28;20518;-76
2022/04/12 11:37:51;;;;;;;0.43;0.43;;;;;;;18.28;42.72;100327.59;5259227;27;20484;-76
2022/04/12 11:40:25;;;;;;;0.50;0.50;;;;;;;18.28;43.41;100324.94;5242805;28;20039;-77
2022/04/12 11:42:59;;;;;;;0.85;0.85;;;;;;;18.39;42.70;100319.75;5278074;27;20058;-76
2022/04/12 11:45:31;;;;;;;2.58;1.42;;;;;;;18.54;42.78;100321.44;5263029;28;20147;-76
2022/04/12 11:48:05;;;;;;;0.67;0.67;;;;;;;18.84;40.19;100308.81;5253924;28;20039;-77
2022/04/12 11:50:36;;;;;;;1.02;0.98;;;;;;;18.93;40.52;100310.00;5254120;28;20058;-77